createdAt,value
2017-05-04T00:00:17.524Z,0
2017-05-04T00:01:27.189Z,0
2017-05-04T00:02:37.479Z,0
2017-05-04T00:03:48.332Z,0
2017-05-04T00:04:58.571Z,0
2017-05-04T00:06:08.239Z,0
2017-05-04T00:07:18.526Z,0
2017-05-04T00:08:28.494Z,0
2017-05-04T00:09:38.778Z,0
2017-05-04T00:10:49.327Z,0
2017-05-04T00:11:59.294Z,0
2017-05-04T00:13:09.582Z,0
2017-05-04T00:14:19.551Z,0
2017-05-04T00:15:29.844Z,0
2017-05-04T00:16:40.081Z,0
2017-05-04T00:17:50.365Z,0
2017-05-04T00:19:00.337Z,0
2017-05-04T00:20:10.626Z,0
2017-05-04T00:21:19.978Z,0
2017-05-04T00:22:30.511Z,0
2017-05-04T00:23:40.790Z,0
2017-05-04T00:24:51.076Z,0
2017-05-04T00:26:01.362Z,0
2017-05-04T00:27:11.320Z,0
2017-05-04T00:28:21.847Z,0
2017-05-04T00:29:32.167Z,0
2017-05-04T00:30:42.125Z,0
2017-05-04T00:31:52.399Z,0
2017-05-04T00:33:02.356Z,0
2017-05-04T00:34:12.561Z,0
2017-05-04T00:35:22.551Z,0
2017-05-04T00:36:32.829Z,0
2017-05-04T00:37:42.787Z,0
2017-05-04T00:38:52.753Z,0
2017-05-04T00:40:03.283Z,0
2017-05-04T00:41:13.575Z,0
2017-05-04T00:42:23.857Z,0
2017-05-04T00:43:34.144Z,0
2017-05-04T00:44:44.431Z,0
2017-05-04T00:45:54.343Z,0
2017-05-04T00:47:04.848Z,0
2017-05-04T00:48:14.814Z,0
2017-05-04T00:49:25.098Z,0
2017-05-04T00:50:35.392Z,0
2017-05-04T00:51:45.920Z,0
2017-05-04T00:52:56.215Z,0
2017-05-04T00:54:06.179Z,0
2017-05-04T00:55:16.448Z,0
2017-05-04T00:56:26.413Z,0
2017-05-04T00:57:36.948Z,0
2017-05-04T00:58:46.915Z,0
2017-05-04T00:59:56.877Z,0
2017-05-04T01:01:07.146Z,0
2017-05-04T01:02:17.417Z,0
2017-05-04T01:03:28.036Z,0
2017-05-04T01:04:38.309Z,0
2017-05-04T01:05:48.934Z,0
2017-05-04T01:06:58.904Z,0
2017-05-04T01:08:08.876Z,0
2017-05-04T01:09:19.435Z,0
2017-05-04T01:10:29.713Z,0
2017-05-04T01:11:39.686Z,0
2017-05-04T01:12:50.192Z,0
2017-05-04T01:14:00.477Z,0
2017-05-04T01:15:10.704Z,0
2017-05-04T01:16:20.987Z,0
2017-05-04T01:17:31.265Z,0
2017-05-04T01:18:41.544Z,0
2017-05-04T01:19:51.823Z,0
2017-05-04T01:21:02.355Z,0
2017-05-04T01:22:12.638Z,0
2017-05-04T01:23:22.923Z,0
2017-05-04T01:24:32.581Z,0
2017-05-04T01:25:42.545Z,0
2017-05-04T01:26:52.765Z,0
2017-05-04T01:28:03.043Z,0
2017-05-04T01:29:13.324Z,0
2017-05-04T01:30:23.293Z,0
2017-05-04T01:31:33.566Z,0
2017-05-04T01:32:43.778Z,0
2017-05-04T01:33:54.061Z,0
2017-05-04T01:35:04.357Z,0
2017-05-04T01:36:14.639Z,0
2017-05-04T01:37:24.619Z,0
2017-05-04T01:38:34.845Z,0
2017-05-04T01:39:45.138Z,0
2017-05-04T01:40:55.407Z,0
2017-05-04T01:42:05.369Z,0
2017-05-04T01:43:15.658Z,0
2017-05-04T01:44:26.185Z,0
2017-05-04T01:45:36.158Z,0
2017-05-04T01:46:46.448Z,0
2017-05-04T01:47:56.422Z,0
2017-05-04T01:49:06.712Z,0
2017-05-04T01:50:17.242Z,0
2017-05-04T01:51:27.522Z,0
2017-05-04T01:52:37.805Z,0
2017-05-04T01:53:48.088Z,0
2017-05-04T01:54:58.380Z,0
2017-05-04T01:56:08.912Z,0
2017-05-04T01:57:18.872Z,0
2017-05-04T01:58:28.847Z,0
2017-05-04T01:59:38.822Z,0
2017-05-04T02:00:48.794Z,0
2017-05-04T02:01:59.326Z,0
2017-05-04T02:03:09.300Z,0
2017-05-04T02:04:19.267Z,0
2017-05-04T02:05:29.548Z,0
2017-05-04T02:06:39.831Z,0
2017-05-04T02:07:50.367Z,0
2017-05-04T02:09:00.653Z,0
2017-05-04T02:10:10.309Z,0
2017-05-04T02:11:20.283Z,0
2017-05-04T02:12:30.561Z,0
2017-05-04T02:13:41.090Z,0
2017-05-04T02:14:51.382Z,0
2017-05-04T02:16:01.813Z,0
2017-05-04T02:17:11.778Z,0
2017-05-04T02:18:21.739Z,0
2017-05-04T02:19:31.646Z,0
2017-05-04T02:20:41.925Z,0
2017-05-04T02:21:51.905Z,0
2017-05-04T02:23:02.185Z,0
2017-05-04T02:24:12.474Z,0
2017-05-04T02:25:23.003Z,0
2017-05-04T02:26:33.293Z,0
2017-05-04T02:27:43.583Z,0
2017-05-04T02:28:53.869Z,0
2017-05-04T02:30:04.143Z,0
2017-05-04T02:31:14.684Z,0
2017-05-04T02:32:24.969Z,0
2017-05-04T02:33:34.943Z,0
2017-05-04T02:34:45.224Z,0
2017-05-04T02:35:55.508Z,0
2017-05-04T02:37:06.071Z,0
2017-05-04T02:38:16.049Z,0
2017-05-04T02:39:26.327Z,0
2017-05-04T02:40:36.604Z,0
2017-05-04T02:41:46.882Z,0
2017-05-04T02:42:57.098Z,0
2017-05-04T02:44:07.385Z,0
2017-05-04T02:45:17.661Z,0
2017-05-04T02:46:27.934Z,0
2017-05-04T02:47:38.219Z,0
2017-05-04T02:48:48.782Z,0
2017-05-04T02:49:59.265Z,0
2017-05-04T02:51:08.925Z,0
2017-05-04T02:52:18.892Z,0
2017-05-04T02:53:29.177Z,0
2017-05-04T02:54:39.405Z,0
2017-05-04T02:55:49.380Z,0
2017-05-04T02:56:59.343Z,0
2017-05-04T02:58:09.615Z,0
2017-05-04T02:59:19.902Z,0
2017-05-04T03:00:30.428Z,0
2017-05-04T03:01:40.405Z,0
2017-05-04T03:02:50.684Z,0
2017-05-04T03:04:00.964Z,0
2017-05-04T03:05:11.253Z,0
2017-05-04T03:06:21.849Z,0
2017-05-04T03:07:32.126Z,0
2017-05-04T03:08:42.408Z,0
2017-05-04T03:09:52.374Z,0
2017-05-04T03:11:02.342Z,0
2017-05-04T03:12:12.882Z,0
2017-05-04T03:13:23.155Z,0
2017-05-04T03:14:33.135Z,0
2017-05-04T03:15:43.411Z,0
2017-05-04T03:16:53.400Z,0
2017-05-04T03:18:03.302Z,0
2017-05-04T03:19:13.285Z,0
2017-05-04T03:20:23.572Z,0
2017-05-04T03:21:33.854Z,0
2017-05-04T03:22:44.147Z,0
2017-05-04T03:23:54.683Z,0
2017-05-04T03:25:04.362Z,0
2017-05-04T03:26:14.649Z,0
2017-05-04T03:27:24.921Z,0
2017-05-04T03:28:35.202Z,0
2017-05-04T03:29:45.417Z,0
2017-05-04T03:30:55.692Z,0
2017-05-04T03:32:05.676Z,0
2017-05-04T03:33:15.655Z,0
2017-05-04T03:34:25.934Z,0
2017-05-04T03:35:36.458Z,0
2017-05-04T03:36:46.415Z,0
2017-05-04T03:37:56.709Z,0
2017-05-04T03:39:06.677Z,0
2017-05-04T03:40:16.649Z,0
2017-05-04T03:41:26.872Z,0
2017-05-04T03:42:36.841Z,0
2017-05-04T03:43:46.806Z,0
2017-05-04T03:44:57.083Z,0
2017-05-04T03:46:07.045Z,0
2017-05-04T03:47:17.574Z,0
2017-05-04T03:48:27.850Z,0
2017-05-04T03:49:37.507Z,0
2017-05-04T03:50:47.783Z,0
2017-05-04T03:51:58.055Z,0
2017-05-04T03:53:08.638Z,0
2017-05-04T03:54:18.940Z,0
2017-05-04T03:55:28.942Z,0
2017-05-04T03:56:39.210Z,0
2017-05-04T03:57:49.496Z,0
2017-05-04T03:58:59.402Z,0
2017-05-04T04:00:09.680Z,0
2017-05-04T04:01:19.952Z,0
2017-05-04T04:02:30.232Z,0
2017-05-04T04:03:40.514Z,0
2017-05-04T04:04:51.040Z,0
2017-05-04T04:06:01.329Z,0
2017-05-04T04:07:11.614Z,0
2017-05-04T04:08:21.887Z,0
2017-05-04T04:09:32.158Z,0
2017-05-04T04:10:42.116Z,0
2017-05-04T04:11:52.085Z,4
2017-05-04T04:13:02.366Z,4
2017-05-04T04:14:12.639Z,4
2017-05-04T04:15:22.915Z,4
2017-05-04T04:16:33.144Z,40
2017-05-04T04:17:43.424Z,140
2017-05-04T04:18:53.423Z,144
2017-05-04T04:20:03.407Z,152
2017-05-04T04:21:13.687Z,160
2017-05-04T04:22:23.903Z,164
2017-05-04T04:23:34.177Z,156
2017-05-04T04:24:44.464Z,164
2017-05-04T04:25:54.439Z,180
2017-05-04T04:27:04.714Z,184
2017-05-04T04:28:15.253Z,196
2017-05-04T04:29:25.223Z,212
2017-05-04T04:30:35.183Z,228
2017-05-04T04:31:45.159Z,244
2017-05-04T04:32:55.437Z,248
2017-05-04T04:34:05.658Z,240
2017-05-04T04:35:15.966Z,244
2017-05-04T04:36:25.940Z,248
2017-05-04T04:37:36.247Z,252
2017-05-04T04:38:46.559Z,244
2017-05-04T04:39:57.110Z,224
2017-05-04T04:41:07.500Z,220
2017-05-04T04:42:17.492Z,228
2017-05-04T04:43:27.775Z,252
2017-05-04T04:44:37.450Z,232
2017-05-04T04:45:47.974Z,204
2017-05-04T04:46:58.247Z,200
2017-05-04T04:48:08.219Z,196
2017-05-04T04:49:18.495Z,196
2017-05-04T04:50:28.465Z,188
2017-05-04T04:51:38.677Z,192
2017-05-04T04:52:48.949Z,196
2017-05-04T04:53:59.225Z,188
2017-05-04T04:55:09.501Z,168
2017-05-04T04:56:19.781Z,164
2017-05-04T04:57:30.307Z,164
2017-05-04T04:58:40.585Z,168
2017-05-04T04:59:50.864Z,184
2017-05-04T05:01:01.162Z,192
2017-05-04T05:02:11.439Z,192
2017-05-04T05:03:21.968Z,196
2017-05-04T05:04:31.939Z,192
2017-05-04T05:05:42.234Z,184
2017-05-04T05:06:52.512Z,192
2017-05-04T05:08:02.781Z,208
2017-05-04T05:09:13.292Z,240
2017-05-04T05:10:23.588Z,260
2017-05-04T05:11:33.878Z,272
2017-05-04T05:12:43.532Z,268
2017-05-04T05:13:53.499Z,264
2017-05-04T05:15:04.034Z,272
2017-05-04T05:16:14.319Z,284
2017-05-04T05:17:24.597Z,280
2017-05-04T05:18:34.572Z,280
2017-05-04T05:19:44.547Z,272
2017-05-04T05:20:55.082Z,264
2017-05-04T05:22:05.051Z,264
2017-05-04T05:23:15.332Z,276
2017-05-04T05:24:25.614Z,300
2017-05-04T05:25:35.890Z,304
2017-05-04T05:26:46.099Z,304
2017-05-04T05:27:56.392Z,316
2017-05-04T05:29:06.056Z,348
2017-05-04T05:30:16.333Z,376
2017-05-04T05:31:26.647Z,408
2017-05-04T05:32:36.594Z,428
2017-05-04T05:33:46.892Z,432
2017-05-04T05:34:56.854Z,412
2017-05-04T05:36:07.135Z,380
2017-05-04T05:37:17.412Z,360
2017-05-04T05:38:28.173Z,348
2017-05-04T05:39:38.140Z,324
2017-05-04T05:40:48.107Z,316
2017-05-04T05:41:58.387Z,320
2017-05-04T05:43:08.669Z,320
2017-05-04T05:44:19.204Z,312
2017-05-04T05:45:29.492Z,328
2017-05-04T05:46:39.779Z,348
2017-05-04T05:47:50.065Z,348
2017-05-04T05:49:00.349Z,360
2017-05-04T05:50:10.885Z,372
2017-05-04T05:51:21.271Z,368
2017-05-04T05:52:31.551Z,368
2017-05-04T05:53:41.217Z,360
2017-05-04T05:54:51.198Z,356
2017-05-04T05:56:01.426Z,356
2017-05-04T05:57:11.711Z,368
2017-05-04T05:58:22.009Z,436
2017-05-04T05:59:31.987Z,516
2017-05-04T06:00:42.263Z,544
2017-05-04T06:01:52.900Z,564
2017-05-04T06:03:03.213Z,588
2017-05-04T06:04:13.527Z,620
2017-05-04T06:05:23.211Z,608
2017-05-04T06:06:33.502Z,588
2017-05-04T06:07:44.048Z,644
2017-05-04T06:08:54.330Z,696
2017-05-04T06:10:04.025Z,676
2017-05-04T06:11:14.011Z,700
2017-05-04T06:12:24.315Z,784
2017-05-04T06:13:34.880Z,776
2017-05-04T06:14:45.184Z,800
2017-05-04T06:15:55.479Z,808
2017-05-04T06:17:05.464Z,784
2017-05-04T06:18:15.439Z,816
2017-05-04T06:19:25.683Z,852
2017-05-04T06:20:35.654Z,936
2017-05-04T06:21:45.650Z,956
2017-05-04T06:22:55.631Z,932
2017-05-04T06:24:05.940Z,864
2017-05-04T06:25:16.546Z,836
2017-05-04T06:26:26.537Z,836
2017-05-04T06:27:37.075Z,780
2017-05-04T06:28:47.417Z,772
2017-05-04T06:29:57.709Z,740
2017-05-04T06:31:08.315Z,664
2017-05-04T06:32:18.634Z,728
2017-05-04T06:33:29.155Z,648
2017-05-04T06:34:38.829Z,648
2017-05-04T06:35:48.805Z,648
2017-05-04T06:36:59.331Z,600
2017-05-04T06:38:09.302Z,564
2017-05-04T06:39:19.281Z,560
2017-05-04T06:40:29.576Z,672
2017-05-04T06:41:39.894Z,680
2017-05-04T06:42:50.123Z,736
2017-05-04T06:44:00.103Z,792
2017-05-04T06:45:10.098Z,768
2017-05-04T06:46:20.070Z,848
2017-05-04T06:47:30.354Z,904
2017-05-04T06:48:40.897Z,944
2017-05-04T06:49:51.172Z,964
2017-05-04T06:51:01.476Z,896
2017-05-04T06:52:11.785Z,856
2017-05-04T06:53:22.098Z,972
2017-05-04T06:54:32.330Z,1040
2017-05-04T06:55:42.615Z,1060
2017-05-04T06:56:52.901Z,1020
2017-05-04T06:58:02.895Z,996
2017-05-04T06:59:12.872Z,1132
2017-05-04T07:00:22.470Z,1320
2017-05-04T07:01:32.528Z,1384
2017-05-04T07:02:42.194Z,1324
2017-05-04T07:03:52.423Z,1184
2017-05-04T07:05:02.756Z,1084
2017-05-04T07:06:13.343Z,1088
2017-05-04T07:07:23.639Z,1088
2017-05-04T07:08:33.951Z,1008
2017-05-04T07:09:43.937Z,900
2017-05-04T07:10:54.262Z,924
2017-05-04T07:12:04.859Z,944
2017-05-04T07:13:15.140Z,836
2017-05-04T07:14:25.448Z,808
2017-05-04T07:15:35.429Z,816
2017-05-04T07:16:45.762Z,760
2017-05-04T07:17:56.564Z,724
2017-05-04T07:19:06.915Z,692
2017-05-04T07:20:16.906Z,664
2017-05-04T07:21:26.913Z,668
2017-05-04T07:22:36.941Z,688
2017-05-04T07:23:47.482Z,688
2017-05-04T07:24:57.150Z,700
2017-05-04T07:26:07.122Z,772
2017-05-04T07:27:17.400Z,808
2017-05-04T07:28:27.691Z,708
2017-05-04T07:29:38.225Z,672
2017-05-04T07:30:48.508Z,664
2017-05-04T07:31:58.818Z,676
2017-05-04T07:33:09.107Z,672
2017-05-04T07:34:19.379Z,672
2017-05-04T07:35:29.597Z,732
2017-05-04T07:36:39.586Z,684
2017-05-04T07:37:49.870Z,608
2017-05-04T07:39:00.158Z,728
2017-05-04T07:40:10.131Z,832
2017-05-04T07:41:20.671Z,880
2017-05-04T07:42:30.972Z,880
2017-05-04T07:43:41.260Z,868
2017-05-04T07:44:51.235Z,812
2017-05-04T07:46:01.214Z,788
2017-05-04T07:47:11.797Z,768
2017-05-04T07:48:22.122Z,732
2017-05-04T07:49:32.417Z,764
2017-05-04T07:50:42.699Z,796
2017-05-04T07:51:52.996Z,792
2017-05-04T07:53:03.553Z,828
2017-05-04T07:54:13.842Z,908
2017-05-04T07:55:24.136Z,960
2017-05-04T07:56:34.425Z,920
2017-05-04T07:57:44.404Z,1020
2017-05-04T07:58:54.976Z,1068
2017-05-04T08:00:05.485Z,1096
2017-05-04T08:01:15.173Z,1160
2017-05-04T08:02:25.148Z,1260
2017-05-04T08:03:35.449Z,1288
2017-05-04T08:04:46.040Z,1312
2017-05-04T08:05:56.339Z,1288
2017-05-04T08:07:06.644Z,1232
2017-05-04T08:08:16.020Z,1252
2017-05-04T08:09:26.317Z,1340
2017-05-04T08:10:36.864Z,1356
2017-05-04T08:11:47.160Z,1384
2017-05-04T08:12:57.129Z,1380
2017-05-04T08:14:07.462Z,1248
2017-05-04T08:15:17.752Z,1348
2017-05-04T08:16:28.297Z,1312
2017-05-04T08:17:38.586Z,1296
2017-05-04T08:18:49.142Z,1300
2017-05-04T08:19:59.444Z,1332
2017-05-04T08:21:09.412Z,1312
2017-05-04T08:22:20.012Z,1352
2017-05-04T08:23:29.991Z,1308
2017-05-04T08:24:39.962Z,1336
2017-05-04T08:25:49.948Z,1312
2017-05-04T08:26:59.607Z,1296
2017-05-04T08:28:10.149Z,1340
2017-05-04T08:29:20.460Z,1548
2017-05-04T08:30:30.768Z,1680
2017-05-04T08:31:40.739Z,1888
2017-05-04T08:32:50.425Z,2132
2017-05-04T08:34:00.958Z,2148
2017-05-04T08:35:10.942Z,1932
2017-05-04T08:36:21.275Z,1664
2017-05-04T08:37:31.266Z,1704
2017-05-04T08:38:41.562Z,1744
2017-05-04T08:39:52.105Z,1888
2017-05-04T08:41:02.398Z,1980
2017-05-04T08:42:12.689Z,1784
2017-05-04T08:43:22.978Z,1804
2017-05-04T08:44:33.268Z,1720
2017-05-04T08:45:43.914Z,1652
2017-05-04T08:46:54.220Z,1584
2017-05-04T08:48:04.528Z,1476
2017-05-04T08:49:14.828Z,1520
2017-05-04T08:50:25.127Z,1660
2017-05-04T08:51:35.735Z,1636
2017-05-04T08:52:46.063Z,1780
2017-05-04T08:53:56.384Z,1948
2017-05-04T08:55:06.662Z,2088
2017-05-04T08:56:16.662Z,2072
2017-05-04T08:57:26.885Z,2060
2017-05-04T08:58:37.177Z,1796
2017-05-04T08:59:47.184Z,1996
2017-05-04T09:00:57.477Z,2044
2017-05-04T09:02:07.763Z,1800
2017-05-04T09:03:18.300Z,1884
2017-05-04T09:04:28.605Z,1604
2017-05-04T09:05:38.584Z,1636
2017-05-04T09:06:48.868Z,1656
2017-05-04T09:07:59.165Z,1392
2017-05-04T09:09:09.449Z,1104
2017-05-04T09:10:19.720Z,1064
2017-05-04T09:11:29.697Z,1112
2017-05-04T09:12:39.786Z,1020
2017-05-04T09:13:50.140Z,980
2017-05-04T09:15:00.386Z,1000
2017-05-04T09:16:10.667Z,988
2017-05-04T09:17:20.943Z,880
2017-05-04T09:18:31.231Z,960
2017-05-04T09:19:41.513Z,920
2017-05-04T09:20:51.778Z,1040
2017-05-04T09:22:02.074Z,876
2017-05-04T09:23:12.361Z,832
2017-05-04T09:24:22.646Z,884
2017-05-04T09:25:32.634Z,908
2017-05-04T09:26:43.188Z,908
2017-05-04T09:27:53.504Z,1128
2017-05-04T09:29:03.504Z,956
2017-05-04T09:30:13.812Z,1076
2017-05-04T09:31:24.104Z,1036
2017-05-04T09:32:34.332Z,1264
2017-05-04T09:33:44.638Z,1208
2017-05-04T09:34:54.638Z,1020
2017-05-04T09:36:04.920Z,1364
2017-05-04T09:37:15.233Z,1252
2017-05-04T09:38:25.767Z,1184
2017-05-04T09:39:36.082Z,1236
2017-05-04T09:40:46.388Z,1424
2017-05-04T09:41:56.700Z,1332
2017-05-04T09:43:06.698Z,1420
2017-05-04T09:44:17.027Z,1444
2017-05-04T09:45:27.026Z,1404
2017-05-04T09:46:37.315Z,1432
2017-05-04T09:47:47.612Z,1240
2017-05-04T09:48:57.592Z,1108
2017-05-04T09:50:08.150Z,1272
2017-05-04T09:51:18.445Z,1404
2017-05-04T09:52:28.737Z,1440
2017-05-04T09:53:38.714Z,1280
2017-05-04T09:54:49.034Z,1272
2017-05-04T09:55:59.575Z,1196
2017-05-04T09:57:09.857Z,1088
2017-05-04T09:58:20.146Z,1068
2017-05-04T09:59:30.469Z,1116
2017-05-04T10:00:40.757Z,1260
2017-05-04T10:01:50.983Z,1112
2017-05-04T10:03:00.960Z,956
2017-05-04T10:04:11.242Z,928
2017-05-04T10:05:21.215Z,1112
2017-05-04T10:06:31.508Z,1340
2017-05-04T10:07:41.417Z,1424
2017-05-04T10:08:51.400Z,1404
2017-05-04T10:10:01.398Z,1144
2017-05-04T10:11:11.687Z,1056
2017-05-04T10:12:21.980Z,1112
2017-05-04T10:13:32.513Z,1252
2017-05-04T10:14:42.488Z,1264
2017-05-04T10:15:52.777Z,1228
2017-05-04T10:17:03.063Z,1252
2017-05-04T10:18:13.364Z,1120
2017-05-04T10:19:23.612Z,1172
2017-05-04T10:20:33.907Z,1108
2017-05-04T10:21:44.204Z,1300
2017-05-04T10:22:54.521Z,900
2017-05-04T10:24:04.829Z,1052
2017-05-04T10:25:15.370Z,1168
2017-05-04T10:26:25.335Z,1112
2017-05-04T10:27:34.690Z,1028
2017-05-04T10:28:44.976Z,1240
2017-05-04T10:29:54.947Z,1292
2017-05-04T10:31:05.205Z,1244
2017-05-04T10:32:15.507Z,1068
2017-05-04T10:33:25.790Z,1056
2017-05-04T10:34:35.459Z,960
2017-05-04T10:35:45.737Z,1060
2017-05-04T10:36:56.343Z,1076
2017-05-04T10:38:06.626Z,996
2017-05-04T10:39:16.902Z,1308
2017-05-04T10:40:26.580Z,1304
2017-05-04T10:41:36.854Z,1264
2017-05-04T10:42:46.797Z,1404
2017-05-04T10:43:56.818Z,1292
2017-05-04T10:45:07.111Z,1228
2017-05-04T10:46:16.455Z,1224
2017-05-04T10:47:26.753Z,1056
2017-05-04T10:48:36.973Z,1180
2017-05-04T10:49:47.293Z,1148
2017-05-04T10:50:57.583Z,944
2017-05-04T10:52:07.544Z,952
2017-05-04T10:53:17.833Z,1032
2017-05-04T10:54:28.358Z,980
2017-05-04T10:55:38.643Z,980
2017-05-04T10:56:48.963Z,1048
2017-05-04T10:57:59.253Z,1000
2017-05-04T10:59:08.632Z,1080
2017-05-04T11:00:18.903Z,1116
2017-05-04T11:01:29.183Z,1140
2017-05-04T11:02:39.476Z,1176
2017-05-04T11:03:49.810Z,1332
2017-05-04T11:05:00.117Z,1156
2017-05-04T11:06:10.357Z,968
2017-05-04T11:07:20.680Z,876
2017-05-04T11:08:30.969Z,912
2017-05-04T11:09:40.929Z,1252
2017-05-04T11:10:51.217Z,1116
2017-05-04T11:12:01.753Z,952
2017-05-04T11:13:11.411Z,1004
2017-05-04T11:14:21.074Z,1248
2017-05-04T11:15:31.359Z,1144
2017-05-04T11:16:41.661Z,876
2017-05-04T11:17:52.189Z,988
2017-05-04T11:19:02.470Z,1064
2017-05-04T11:20:12.758Z,1152
2017-05-04T11:21:22.726Z,1244
2017-05-04T11:22:32.695Z,1172
2017-05-04T11:23:42.930Z,1024
2017-05-04T11:24:53.217Z,1380
2017-05-04T11:26:03.501Z,1384
2017-05-04T11:27:13.796Z,1560
2017-05-04T11:28:24.075Z,1512
2017-05-04T11:29:34.603Z,1164
2017-05-04T11:30:44.589Z,1516
2017-05-04T11:31:54.872Z,1396
2017-05-04T11:33:05.160Z,1696
2017-05-04T11:34:15.132Z,1312
2017-05-04T11:35:25.715Z,1532
2017-05-04T11:36:35.385Z,1232
2017-05-04T11:37:44.725Z,1280
2017-05-04T11:38:54.723Z,1132
2017-05-04T11:40:04.700Z,1672
2017-05-04T11:41:14.931Z,1292
2017-05-04T11:42:24.903Z,1344
2017-05-04T11:43:35.224Z,1396
2017-05-04T11:44:45.525Z,1148
2017-05-04T11:45:55.513Z,1384
2017-05-04T11:47:06.097Z,1436
2017-05-04T11:48:16.401Z,1156
2017-05-04T11:49:26.690Z,1296
2017-05-04T11:50:36.664Z,1336
2017-05-04T11:51:46.954Z,1484
2017-05-04T11:52:57.549Z,1408
2017-05-04T11:54:07.831Z,1692
2017-05-04T11:55:18.123Z,1524
2017-05-04T11:56:28.413Z,1396
2017-05-04T11:57:38.181Z,1400
2017-05-04T11:58:48.408Z,1204
2017-05-04T11:59:58.697Z,1384
2017-05-04T12:01:08.997Z,1620
2017-05-04T12:02:19.296Z,1356
2017-05-04T12:03:29.276Z,1524
2017-05-04T12:04:39.830Z,1280
2017-05-04T12:05:50.118Z,1428
2017-05-04T12:06:59.811Z,1416
2017-05-04T12:08:10.102Z,1404
2017-05-04T12:09:20.401Z,1280
2017-05-04T12:10:31.007Z,1384
2017-05-04T12:11:41.277Z,1196
2017-05-04T12:12:51.591Z,1280
2017-05-04T12:14:01.891Z,1208
2017-05-04T12:15:12.192Z,1264
2017-05-04T12:16:22.745Z,1148
2017-05-04T12:17:33.030Z,1208
2017-05-04T12:18:43.338Z,1260
2017-05-04T12:19:53.640Z,1084
2017-05-04T12:21:03.924Z,1232
2017-05-04T12:22:14.149Z,976
2017-05-04T12:23:24.446Z,1116
2017-05-04T12:24:34.427Z,1076
2017-05-04T12:25:44.718Z,860
2017-05-04T12:26:55.013Z,984
2017-05-04T12:28:04.939Z,760
2017-05-04T12:29:15.217Z,888
2017-05-04T12:30:25.503Z,792
2017-05-04T12:31:35.474Z,844
2017-05-04T12:32:45.473Z,884
2017-05-04T12:33:56.011Z,984
2017-05-04T12:35:06.301Z,868
2017-05-04T12:36:16.587Z,1008
2017-05-04T12:37:26.559Z,1028
2017-05-04T12:38:36.887Z,1080
2017-05-04T12:39:47.107Z,980
2017-05-04T12:40:57.096Z,1124
2017-05-04T12:42:06.766Z,1024
2017-05-04T12:43:17.269Z,1196
2017-05-04T12:44:27.275Z,1304
2017-05-04T12:45:37.811Z,1224
2017-05-04T12:46:47.478Z,1256
2017-05-04T12:47:57.762Z,1292
2017-05-04T12:49:07.742Z,1196
2017-05-04T12:50:17.733Z,1244
2017-05-04T12:51:28.014Z,1364
2017-05-04T12:52:38.311Z,1244
2017-05-04T12:53:48.291Z,1352
2017-05-04T12:54:58.571Z,1392
2017-05-04T12:56:08.236Z,1440
2017-05-04T12:57:18.820Z,1296
2017-05-04T12:58:28.823Z,1164
2017-05-04T12:59:39.107Z,1196
2017-05-04T13:00:49.102Z,1040
2017-05-04T13:01:59.409Z,1216
2017-05-04T13:03:09.948Z,1148
2017-05-04T13:04:20.224Z,980
2017-05-04T13:05:30.506Z,856
2017-05-04T13:06:40.801Z,1040
2017-05-04T13:07:50.792Z,848
2017-05-04T13:09:01.022Z,1028
2017-05-04T13:10:11.317Z,1044
2017-05-04T13:11:21.615Z,1140
2017-05-04T13:12:31.900Z,1028
2017-05-04T13:13:42.195Z,1084
2017-05-04T13:14:52.742Z,1088
2017-05-04T13:16:03.023Z,940
2017-05-04T13:17:13.005Z,936
2017-05-04T13:18:23.285Z,960
2017-05-04T13:19:33.560Z,980
2017-05-04T13:20:43.781Z,840
2017-05-04T13:21:54.064Z,868
2017-05-04T13:23:04.037Z,912
2017-05-04T13:24:14.315Z,920
2017-05-04T13:25:24.605Z,924
2017-05-04T13:26:35.166Z,784
2017-05-04T13:27:45.451Z,992
2017-05-04T13:28:55.753Z,768
2017-05-04T13:30:06.059Z,760
2017-05-04T13:31:16.364Z,872
2017-05-04T13:32:26.894Z,888
2017-05-04T13:33:37.179Z,764
2017-05-04T13:34:46.840Z,788
2017-05-04T13:35:56.823Z,964
2017-05-04T13:37:07.102Z,800
2017-05-04T13:38:17.331Z,832
2017-05-04T13:39:27.620Z,936
2017-05-04T13:40:37.895Z,808
2017-05-04T13:41:48.177Z,784
2017-05-04T13:42:58.171Z,696
2017-05-04T13:44:08.713Z,888
2017-05-04T13:45:18.992Z,792
2017-05-04T13:46:29.308Z,748
2017-05-04T13:47:39.598Z,684
2017-05-04T13:48:49.898Z,752
2017-05-04T13:50:00.429Z,828
2017-05-04T13:51:10.715Z,820
2017-05-04T13:52:21.005Z,812
2017-05-04T13:53:31.298Z,736
2017-05-04T13:54:41.576Z,740
2017-05-04T13:55:52.108Z,620
2017-05-04T13:57:02.394Z,768
2017-05-04T13:58:12.683Z,724
2017-05-04T13:59:22.667Z,728
2017-05-04T14:00:32.953Z,768
2017-05-04T14:01:43.560Z,704
2017-05-04T14:02:53.546Z,804
2017-05-04T14:04:03.829Z,740
2017-05-04T14:05:13.178Z,640
2017-05-04T14:06:23.466Z,836
2017-05-04T14:07:34.013Z,680
2017-05-04T14:08:44.307Z,580
2017-05-04T14:09:54.293Z,596
2017-05-04T14:11:04.277Z,604
2017-05-04T14:12:14.269Z,680
2017-05-04T14:13:24.482Z,588
2017-05-04T14:14:34.444Z,556
2017-05-04T14:15:44.723Z,760
2017-05-04T14:16:55.003Z,728
2017-05-04T14:18:04.975Z,756
2017-05-04T14:19:15.522Z,772
2017-05-04T14:20:25.804Z,716
2017-05-04T14:21:36.086Z,708
2017-05-04T14:22:46.367Z,780
2017-05-04T14:23:56.647Z,760
2017-05-04T14:25:07.185Z,768
2017-05-04T14:26:17.454Z,652
2017-05-04T14:27:27.443Z,588
2017-05-04T14:28:37.760Z,616
2017-05-04T14:29:48.059Z,520
2017-05-04T14:30:58.586Z,668
2017-05-04T14:32:08.561Z,752
2017-05-04T14:33:18.217Z,652
2017-05-04T14:34:28.501Z,592
2017-05-04T14:35:38.159Z,588
2017-05-04T14:36:48.700Z,684
2017-05-04T14:37:58.981Z,596
2017-05-04T14:39:08.990Z,692
2017-05-04T14:40:19.261Z,564
2017-05-04T14:41:29.543Z,536
2017-05-04T14:42:39.771Z,536
2017-05-04T14:43:50.050Z,476
2017-05-04T14:45:00.329Z,476
2017-05-04T14:46:10.620Z,460
2017-05-04T14:47:20.898Z,484
2017-05-04T14:48:31.433Z,436
2017-05-04T14:49:41.405Z,504
2017-05-04T14:50:51.708Z,504
2017-05-04T14:52:01.681Z,520
2017-05-04T14:53:11.647Z,544
2017-05-04T14:54:22.274Z,580
2017-05-04T14:55:32.239Z,504
2017-05-04T14:56:41.599Z,496
2017-05-04T14:57:51.601Z,524
2017-05-04T14:59:01.877Z,480
2017-05-04T15:00:11.778Z,480
2017-05-04T15:01:22.058Z,572
2017-05-04T15:02:32.351Z,544
2017-05-04T15:03:42.630Z,524
2017-05-04T15:04:52.606Z,588
2017-05-04T15:06:03.160Z,568
2017-05-04T15:07:13.147Z,612
2017-05-04T15:08:23.435Z,752
2017-05-04T15:09:33.720Z,636
2017-05-04T15:10:44.052Z,608
2017-05-04T15:11:54.631Z,632
2017-05-04T15:13:04.600Z,668
2017-05-04T15:14:14.604Z,612
2017-05-04T15:15:24.611Z,688
2017-05-04T15:16:34.897Z,832
2017-05-04T15:17:45.422Z,696
2017-05-04T15:18:55.707Z,752
2017-05-04T15:20:05.927Z,800
2017-05-04T15:21:16.219Z,732
2017-05-04T15:22:26.498Z,672
2017-05-04T15:23:37.084Z,640
2017-05-04T15:24:47.358Z,672
2017-05-04T15:25:57.330Z,632
2017-05-04T15:27:07.623Z,580
2017-05-04T15:28:17.936Z,544
2017-05-04T15:29:28.525Z,484
2017-05-04T15:30:38.504Z,556
2017-05-04T15:31:48.790Z,484
2017-05-04T15:32:58.761Z,624
2017-05-04T15:34:08.742Z,528
2017-05-04T15:35:19.282Z,588
2017-05-04T15:36:29.252Z,620
2017-05-04T15:37:39.212Z,592
2017-05-04T15:38:49.505Z,516
2017-05-04T15:39:59.784Z,616
2017-05-04T15:41:10.323Z,580
2017-05-04T15:42:20.620Z,476
2017-05-04T15:43:30.582Z,492
2017-05-04T15:44:40.861Z,540
2017-05-04T15:45:50.834Z,544
2017-05-04T15:47:00.759Z,524
2017-05-04T15:48:10.735Z,428
2017-05-04T15:49:21.025Z,476
2017-05-04T15:50:30.998Z,464
2017-05-04T15:51:41.281Z,428
2017-05-04T15:52:51.861Z,400
2017-05-04T15:54:02.156Z,448
2017-05-04T15:55:12.436Z,508
2017-05-04T15:56:22.416Z,504
2017-05-04T15:57:32.102Z,568
2017-05-04T15:58:42.703Z,604
2017-05-04T15:59:52.991Z,548
2017-05-04T16:01:02.952Z,624
2017-05-04T16:02:13.268Z,564
2017-05-04T16:03:23.565Z,416
2017-05-04T16:04:34.091Z,524
2017-05-04T16:05:44.391Z,468
2017-05-04T16:06:54.679Z,524
2017-05-04T16:08:04.658Z,496
2017-05-04T16:09:14.862Z,428
2017-05-04T16:10:25.093Z,436
2017-05-04T16:11:35.065Z,412
2017-05-04T16:12:45.041Z,372
2017-05-04T16:13:55.363Z,420